Record high temperature 37.4°C Record low temperature -14.6°C Record high gust 68.5 km/h Record high average 47.2 km/h Record daily rain 55.3 mm Record low windchill -17.5°C Record high barometer 1045.0 hPa Record low barometer 970.0 hPa
Daily high pressure 1021.0 hPa Daily low pressure 1019.0 hPa Daily low windchill 14.7°C Daily high heat index 15.5°C Daily high gust speed 3.5 kmh ESE Daily high average speed 2.2 kmh WNW

This page is updated from recent data collected by a WMR200 weather station Use the Reload or Refresh facility on your browser to retrieve the latest data.

Status report of weather station: Bienvenue sur la Station Météo de Godarville



Weather report/warning/Metars

Alexandroupoli Airport , Greece (LGAL) 40-51N 025-55E 3M
May 23, 2018 - 03:20 PM EDT / 2018.05.23 1920 UTC
Wind: Variable at 3 MPH (3 KT):0
Visibility: greater than 7 mile(s):0
Sky conditions: mostly clear
Temperature: 69 F (21 C)
Dew Point: 59 F (15 C)
Relative Humidity: 68%
Pressure (altimeter): 30.00 in. Hg (1016 hPa)
ob: LGAL 231920Z VRB03KT 9999 FEW025 21/15 Q1016
cycle: 19

Charleroi / Gosselies, Belgium (EBCI) 50-28N 004-27E 192M
May 23, 2018 - 09:20 PM EDT / 2018.05.24 0120 UTC
Wind: from the NNE (020 degrees) at 6 MPH (5 KT):0
Visibility: greater than 7 mile(s):0
Temperature: 57 F (14 C)
Dew Point: 55 F (13 C)
Relative Humidity: 93%
Pressure (altimeter): 30.09 in. Hg (1019 hPa)
ob: EBCI 240120Z 02005KT CAVOK 14/13 Q1019 NOSIG
cycle: 1

Bruxelles National, Belgium (EBBR) 50-54N 004-32E 58M
May 23, 2018 - 09:20 PM EDT / 2018.05.24 0120 UTC
Wind: from the NW (320 degrees) at 2 MPH (2 KT):0
Visibility: greater than 7 mile(s):0
Temperature: 59 F (15 C)
Dew Point: 57 F (14 C)
Relative Humidity: 93%
Pressure (altimeter): 30.09 in. Hg (1019 hPa)
ob: EBBR 240120Z 32002KT CAVOK 15/14 Q1019 NOSIG
cycle: 1

Koksijde, Belgium (EBFN) 51-05N 002-39E 9M
May 23, 2018 - 09:25 PM EDT / 2018.05.24 0125 UTC
Wind: from the N (010 degrees) at 5 MPH (4 KT):0
Visibility: 1 mile(s):0
Sky conditions: mostly cloudy
Weather: mist
Temperature: 59 F (15 C)
Dew Point: 59 F (15 C)
Relative Humidity: 100%
Pressure (altimeter): 30.09 in. Hg (1019 hPa)
ob: EBFN 240125Z AUTO 01004KT 2100 BR SCT100/// BKN130/// 15/15 Q1019 YLO
cycle: 1

Poznan, Poland (EPPO) 52-25N 016-50E 92M
May 23, 2018 - 09:30 PM EDT / 2018.05.24 0130 UTC
Wind: from the ENE (070 degrees) at 12 MPH (10 KT):0
Visibility: greater than 7 mile(s):0
Temperature: 55 F (13 C)
Dew Point: 48 F (9 C)
Relative Humidity: 76%
Pressure (altimeter): 30.27 in. Hg (1025 hPa)
ob: EPPO 240130Z 07010KT CAVOK 13/09 Q1025 
cycle: 1



Coucher du Soleil:
21:34:58

Lever de Lune:
14:31:57 23/05/18

Coucher de Lune:
03:22:04 23/05/18

Premier Quartier 22 mai 2018
Pleine Lune 29 mai 2018
Dernier Quartier 6 juin 2018
Nouvelle Lune 13 juin 2018
Âge de lune : 9 jours,5 heures,15 minutes,69%
Les heures du jour possible étaient aujourd’hui 15:49